createdAt,value
2018-12-27T00:01:43.757Z,95891.76
2018-12-27T00:04:15.022Z,95896.34
2018-12-27T00:06:46.295Z,95894.88
2018-12-27T00:09:17.067Z,95898.46
2018-12-27T00:11:47.845Z,95895.30
2018-12-27T00:14:18.787Z,95898.55
2018-12-27T00:17:09.766Z,95902.52
2018-12-27T00:19:41.142Z,95896.73
2018-12-27T00:22:11.792Z,95910.50
2018-12-27T00:24:43.021Z,95911.32
2018-12-27T00:27:14.148Z,95903.63
2018-12-27T00:29:44.998Z,95905.94
2018-12-27T00:32:15.728Z,95902.73
2018-12-27T00:34:46.927Z,95906.27
2018-12-27T00:37:18.149Z,95900.42
2018-12-27T00:39:49.180Z,95897.52
2018-12-27T00:42:20.355Z,95900.38
2018-12-27T00:44:51.187Z,95899.27
2018-12-27T00:47:21.979Z,95898.39
2018-12-27T00:49:53.028Z,95889.47
2018-12-27T00:52:24.383Z,95885.76
2018-12-27T00:54:55.207Z,95887.39
2018-12-27T00:57:25.938Z,95898.09
2018-12-27T00:59:57.029Z,95898.66
2018-12-27T01:02:28.157Z,95898.69
2018-12-27T01:04:59.036Z,95903.30
2018-12-27T01:07:29.679Z,95908.91
2018-12-27T01:10:00.867Z,95905.05
2018-12-27T01:12:32.110Z,95905.64
2018-12-27T01:15:03.208Z,95901.50
2018-12-27T01:17:34.025Z,95900.42
2018-12-27T01:20:05.578Z,95897.16
2018-12-27T01:22:36.657Z,95894.25
2018-12-27T01:25:07.389Z,95898.70
2018-12-27T01:27:38.251Z,95894.46
2018-12-27T01:30:09.046Z,95893.69
2018-12-27T01:32:39.781Z,95884.22
2018-12-27T01:35:10.836Z,95887.80
2018-12-27T01:37:42.111Z,95883.06
2018-12-27T01:40:12.918Z,95885.00
2018-12-27T01:42:43.673Z,95874.33
2018-12-27T01:45:14.700Z,95877.20
2018-12-27T01:47:46.071Z,95879.65
2018-12-27T01:50:16.576Z,95880.65
2018-12-27T01:52:47.256Z,95872.80
2018-12-27T01:55:18.273Z,95875.38
2018-12-27T01:57:49.708Z,95872.66
2018-12-27T02:00:20.667Z,95877.53
2018-12-27T02:02:51.477Z,95875.86
2018-12-27T02:05:22.269Z,95880.84
2018-12-27T02:07:53.088Z,95657.08
2018-12-27T02:10:23.988Z,95873.06
2018-12-27T02:12:55.110Z,95871.22
2018-12-27T02:15:25.828Z,95869.50
2018-12-27T02:17:56.459Z,95867.80
2018-12-27T02:20:27.852Z,95861.34
2018-12-27T02:22:59.001Z,95857.51
2018-12-27T02:25:30.168Z,95862.92
2018-12-27T02:28:00.942Z,95863.23
2018-12-27T02:30:31.686Z,95864.77
2018-12-27T02:33:03.156Z,95852.77
2018-12-27T02:35:34.050Z,95848.05
2018-12-27T02:38:04.588Z,95841.66
2018-12-27T02:40:35.371Z,95842.84
2018-12-27T02:43:06.284Z,95836.16
2018-12-27T02:45:37.453Z,95840.49
2018-12-27T02:48:08.685Z,95830.84
2018-12-27T02:50:39.415Z,95831.38
2018-12-27T02:53:10.007Z,95830.94
2018-12-27T02:55:41.292Z,95829.73
2018-12-27T02:58:12.701Z,95829.27
2018-12-27T03:00:43.477Z,95826.66
2018-12-27T03:03:15.265Z,95824.80
2018-12-27T03:05:46.284Z,95824.92
2018-12-27T03:08:17.392Z,95822.02
2018-12-27T03:10:48.322Z,95832.36
2018-12-27T03:13:19.060Z,95836.58
2018-12-27T03:15:50.251Z,95830.58
2018-12-27T03:18:21.470Z,95842.41
2018-12-27T03:20:52.525Z,95840.89
2018-12-27T03:23:24.037Z,95841.47
2018-12-27T03:25:54.906Z,95840.69
2018-12-27T03:28:25.604Z,95842.62
2018-12-27T03:30:56.883Z,95849.58
2018-12-27T03:33:28.112Z,95853.66
2018-12-27T03:35:59.026Z,95858.77
2018-12-27T03:38:29.452Z,95847.25
2018-12-27T03:41:00.648Z,95853.17
2018-12-27T03:43:31.872Z,95860.69
2018-12-27T03:46:02.602Z,95860.52
2018-12-27T03:48:33.311Z,95853.05
2018-12-27T03:51:04.269Z,95848.13
2018-12-27T03:53:35.194Z,95853.05
2018-12-27T03:56:06.111Z,95844.48
2018-12-27T03:58:36.556Z,95854.50
2018-12-27T04:01:07.621Z,95852.44
2018-12-27T04:03:39.047Z,95850.66
2018-12-27T04:06:09.865Z,95858.80
2018-12-27T04:08:40.414Z,95862.62
2018-12-27T04:11:11.487Z,95862.41
2018-12-27T04:13:42.605Z,95865.13
2018-12-27T04:16:13.419Z,95870.86
2018-12-27T04:18:44.034Z,95874.08
2018-12-27T04:21:15.166Z,95878.45
2018-12-27T04:23:47.000Z,95877.27
2018-12-27T04:26:18.655Z,95873.09
2018-12-27T04:28:49.302Z,95873.34
2018-12-27T04:31:20.896Z,95878.39
2018-12-27T04:33:52.414Z,95880.25
2018-12-27T04:36:23.691Z,95883.40
2018-12-27T04:38:54.284Z,95886.92
2018-12-27T04:41:25.253Z,95880.66
2018-12-27T04:43:56.552Z,95891.34
2018-12-27T04:46:27.537Z,95898.00
2018-12-27T04:48:58.881Z,95902.89
2018-12-27T04:51:29.572Z,95905.44
2018-12-27T04:53:59.907Z,95911.25
2018-12-27T04:56:30.867Z,95911.53
2018-12-27T04:59:01.890Z,95911.45
2018-12-27T05:01:33.141Z,95913.52
2018-12-27T05:04:03.654Z,95919.25
2018-12-27T05:06:34.527Z,95919.39
2018-12-27T05:09:07.575Z,95922.00
2018-12-27T05:11:38.783Z,95933.53
2018-12-27T05:14:09.460Z,95933.00
2018-12-27T05:16:40.552Z,95934.77
2018-12-27T05:19:11.683Z,95887.20
2018-12-27T05:21:42.542Z,95937.78
2018-12-27T05:24:13.339Z,95945.03
2018-12-27T05:26:44.160Z,95940.55
2018-12-27T05:29:14.662Z,95946.12
2018-12-27T05:31:45.542Z,95951.77
2018-12-27T05:34:16.487Z,95953.19
2018-12-27T05:36:47.324Z,95962.05
2018-12-27T05:39:18.041Z,95970.54
2018-12-27T05:41:49.103Z,95985.84
2018-12-27T05:44:20.228Z,95982.78
2018-12-27T05:46:51.094Z,95980.09
2018-12-27T05:49:21.770Z,95985.58
2018-12-27T05:51:52.410Z,95979.88
2018-12-27T05:54:23.353Z,95988.73
2018-12-27T05:56:54.119Z,95993.69
2018-12-27T05:59:24.610Z,96007.50
2018-12-27T06:01:55.368Z,95999.42
2018-12-27T06:04:33.560Z,95994.41
2018-12-27T06:06:59.089Z,95989.76
2018-12-27T06:09:30.335Z,95997.83
2018-12-27T06:12:01.342Z,96000.14
2018-12-27T06:14:31.855Z,96006.92
2018-12-27T06:17:02.957Z,96005.72
2018-12-27T06:19:34.077Z,96008.95
2018-12-27T06:22:05.497Z,96020.80
2018-12-27T06:24:36.138Z,96025.22
2018-12-27T06:27:06.888Z,96027.63
2018-12-27T06:29:37.983Z,96024.20
2018-12-27T06:32:08.684Z,96033.06
2018-12-27T06:34:59.141Z,96032.61
2018-12-27T06:37:30.595Z,96033.95
2018-12-27T06:40:01.640Z,96033.98
2018-12-27T06:42:32.791Z,96029.55
2018-12-27T06:45:03.539Z,96028.73
2018-12-27T06:47:34.127Z,96033.27
2018-12-27T06:50:06.732Z,96028.25
2018-12-27T06:52:37.400Z,96031.47
2018-12-27T06:55:08.496Z,96029.69
2018-12-27T06:57:39.471Z,96037.03
2018-12-27T07:00:10.262Z,96030.80
2018-12-27T07:03:00.971Z,96038.05
2018-12-27T07:05:31.582Z,96038.01
2018-12-27T07:08:02.655Z,96040.16
2018-12-27T07:10:33.264Z,96043.58
2018-12-27T07:13:04.345Z,96045.98
2018-12-27T07:15:35.668Z,96055.39
2018-12-27T07:18:08.064Z,96054.30
2018-12-27T07:20:38.658Z,96047.20
2018-12-27T07:23:09.634Z,96042.59
2018-12-27T07:25:40.621Z,96045.73
2018-12-27T07:28:12.715Z,96045.63
2018-12-27T07:30:43.969Z,96042.27
2018-12-27T07:33:15.073Z,95966.96
2018-12-27T07:35:45.606Z,96036.50
2018-12-27T07:38:19.642Z,96039.81
2018-12-27T07:40:50.570Z,96041.10
2018-12-27T07:43:21.394Z,96037.23
2018-12-27T07:45:51.570Z,96046.17
2018-12-27T07:48:21.903Z,96041.88
2018-12-27T07:50:52.381Z,96059.93
2018-12-27T07:53:23.296Z,96059.69
2018-12-27T07:55:53.439Z,96064.39
2018-12-27T07:58:23.644Z,96067.22
2018-12-27T08:00:53.888Z,96065.63
2018-12-27T08:03:24.098Z,96063.61
2018-12-27T08:05:54.468Z,96066.01
2018-12-27T08:08:24.677Z,96070.28
2018-12-27T08:10:54.931Z,96059.05
2018-12-27T08:13:25.181Z,96064.02
2018-12-27T08:15:55.461Z,96061.39
2018-12-27T08:18:26.957Z,96059.73
2018-12-27T08:20:57.697Z,96060.16
2018-12-27T08:23:28.748Z,96058.34
2018-12-27T08:26:00.207Z,96057.23
2018-12-27T08:28:30.770Z,96056.58
2018-12-27T08:31:01.328Z,96062.88
2018-12-27T08:33:32.209Z,96062.72
2018-12-27T08:36:03.149Z,96056.42
2018-12-27T08:38:33.645Z,96061.37
2018-12-27T08:41:04.367Z,96060.84
2018-12-27T08:43:35.226Z,96054.86
2018-12-27T08:46:05.829Z,96042.65
2018-12-27T08:48:37.123Z,96041.45
2018-12-27T08:51:08.215Z,96046.75
2018-12-27T08:53:38.768Z,96044.97
2018-12-27T09:02:10.301Z,96041.04
2018-12-27T09:11:12.119Z,96037.71
2018-12-27T09:14:14.651Z,96044.20
2018-12-27T09:22:35.361Z,96031.91
2018-12-27T09:25:25.003Z,96026.19
2018-12-27T09:28:24.952Z,96021.48
2018-12-27T09:39:50.595Z,95995.48
2018-12-27T09:42:20.957Z,95988.40
2018-12-27T09:44:51.111Z,95982.28
2018-12-27T09:47:21.323Z,95990.62
2018-12-27T09:49:51.594Z,95980.38
2018-12-27T09:52:21.848Z,95978.47
2018-12-27T09:54:52.052Z,95984.73
2018-12-27T09:57:22.272Z,95976.98
2018-12-27T09:59:52.554Z,95971.91
2018-12-27T10:02:22.762Z,95969.84
2018-12-27T10:04:53.051Z,95965.91
2018-12-27T10:07:43.825Z,95962.16
2018-12-27T10:31:28.746Z,95908.98
2018-12-27T10:36:47.611Z,95906.52
2018-12-27T10:39:17.798Z,95904.19
2018-12-27T10:41:48.070Z,95893.34
2018-12-27T10:44:57.165Z,95885.55
2018-12-27T10:47:42.302Z,95887.97
2018-12-27T10:50:51.568Z,95876.98
2018-12-27T10:53:40.976Z,95872.25
2018-12-27T10:56:25.356Z,95870.93
2018-12-27T11:10:09.296Z,95859.41
2018-12-27T11:12:39.701Z,95862.40
2018-12-27T11:15:10.048Z,95864.72
2018-12-27T11:17:40.308Z,95858.74
2018-12-27T11:20:10.482Z,95858.16
2018-12-27T11:22:59.616Z,95858.76
2018-12-27T11:25:29.899Z,95853.42
2018-12-27T11:28:20.317Z,95860.38
2018-12-27T11:34:17.701Z,95850.92
2018-12-27T11:43:13.503Z,95847.04
2018-12-27T11:48:37.430Z,95849.98
2018-12-27T11:51:08.759Z,95846.87
2018-12-27T11:53:39.710Z,95855.28
2018-12-27T11:56:10.071Z,95842.33
2018-12-27T11:58:40.236Z,95846.41
2018-12-27T12:01:10.427Z,95843.91
2018-12-27T12:03:40.711Z,95853.35
2018-12-27T12:06:29.799Z,95856.48
2018-12-27T12:09:00.184Z,95858.23
2018-12-27T12:11:30.425Z,95852.41
2018-12-27T12:14:00.686Z,95860.02
2018-12-27T12:16:30.961Z,95857.35
2018-12-27T12:19:01.150Z,95857.97
2018-12-27T12:21:31.339Z,95861.81
2018-12-27T12:24:01.618Z,95863.57
2018-12-27T12:26:31.888Z,95872.69
2018-12-27T12:29:02.088Z,95866.52
2018-12-27T12:31:32.343Z,95872.54
2018-12-27T12:34:02.621Z,95880.44
2018-12-27T12:36:32.804Z,95884.23
2018-12-27T12:39:04.162Z,95874.16
2018-12-27T12:41:34.447Z,95878.59
2018-12-27T12:44:04.638Z,95872.47
2018-12-27T12:46:34.883Z,95886.80
2018-12-27T12:49:05.194Z,95886.42
2018-12-27T12:51:35.518Z,95890.59
2018-12-27T12:54:05.730Z,95884.70
2018-12-27T12:56:35.898Z,95883.63
2018-12-27T12:59:06.209Z,95893.13
2018-12-27T13:01:36.504Z,95890.16
2018-12-27T13:04:06.716Z,95892.81
2018-12-27T13:06:36.902Z,95891.58
2018-12-27T13:12:08.005Z,95887.25
2018-12-27T13:17:32.494Z,95889.85
2018-12-27T13:20:02.947Z,95890.23
2018-12-27T13:22:33.341Z,95881.11
2018-12-27T13:25:03.537Z,95697.08
2018-12-27T13:27:33.725Z,95887.19
2018-12-27T13:30:03.997Z,95885.02
2018-12-27T13:32:34.234Z,95888.20
2018-12-27T13:35:04.428Z,95882.90
2018-12-27T13:37:34.601Z,95876.91
2018-12-27T13:43:04.265Z,95885.24
2018-12-27T13:45:34.541Z,95890.89
2018-12-27T13:48:04.807Z,95890.00
2018-12-27T13:50:35.070Z,95891.36
2018-12-27T13:53:05.422Z,95893.25
2018-12-27T14:01:55.598Z,95906.27
2018-12-27T14:07:22.602Z,95911.16
2018-12-27T14:09:52.969Z,95914.55
2018-12-27T14:12:23.260Z,95925.39
2018-12-27T14:14:53.436Z,95928.23
2018-12-27T14:17:23.605Z,95925.99
2018-12-27T14:19:53.897Z,95925.06
2018-12-27T14:22:24.148Z,95925.06
2018-12-27T14:24:57.894Z,95923.19
2018-12-27T14:27:26.324Z,95930.67
2018-12-27T14:29:56.626Z,95929.53
2018-12-27T14:32:26.935Z,95929.84
2018-12-27T14:34:57.086Z,95930.73
2018-12-27T14:37:27.251Z,95928.41
2018-12-27T14:39:57.496Z,95927.82
2018-12-27T14:42:27.656Z,95927.94
2018-12-27T14:44:57.904Z,95931.37
2018-12-27T14:47:28.170Z,95934.56
2018-12-27T14:49:58.346Z,95935.98
2018-12-27T14:52:28.543Z,95941.50
2018-12-27T14:54:58.810Z,95943.31
2018-12-27T14:57:29.055Z,95939.47
2018-12-27T14:59:59.258Z,95945.19
2018-12-27T15:02:29.738Z,95945.63
2018-12-27T15:05:39.214Z,95951.58
2018-12-27T15:08:28.550Z,95943.55
2018-12-27T15:23:34.318Z,95951.82
2018-12-27T15:26:29.634Z,95954.76
2018-12-27T15:32:12.119Z,95962.44
2018-12-27T15:34:42.274Z,95970.98
2018-12-27T15:37:12.766Z,95974.46
2018-12-27T15:40:03.161Z,95978.44
2018-12-27T16:09:00.796Z,96008.05
2018-12-27T16:11:47.895Z,96011.58
2018-12-27T16:20:09.908Z,96012.89
2018-12-27T16:22:56.741Z,96017.62
2018-12-27T16:28:46.843Z,96025.23
2018-12-27T16:31:37.323Z,96030.05
2018-12-27T16:45:58.415Z,96051.59
2018-12-27T16:51:46.401Z,96051.59
2018-12-27T16:57:30.100Z,96056.90
2018-12-27T17:06:01.687Z,96064.02
2018-12-27T17:11:36.479Z,96068.77
2018-12-27T17:23:21.627Z,96083.38
2018-12-27T17:34:57.571Z,96087.70
2018-12-27T17:40:46.039Z,96092.36
2018-12-27T18:34:19.204Z,96101.07
2018-12-27T18:37:07.570Z,96109.11
2018-12-27T18:39:52.021Z,96110.58
2018-12-27T19:09:19.455Z,96122.48
2018-12-27T19:12:12.723Z,96121.91
2018-12-27T19:14:45.266Z,96120.47
2018-12-27T19:23:34.477Z,96125.91
2018-12-27T19:26:29.599Z,96123.75
2018-12-27T19:41:02.030Z,96136.23
2018-12-27T19:53:10.838Z,96139.91
2018-12-27T20:11:09.393Z,96153.88
2018-12-27T20:26:24.847Z,96156.55
2018-12-27T20:38:16.390Z,96150.53
2018-12-27T20:41:11.531Z,96148.04
2018-12-27T20:49:59.999Z,96153.31
2018-12-27T20:56:03.401Z,96152.02
2018-12-27T21:01:38.007Z,96152.78
2018-12-27T21:04:22.269Z,96149.84
2018-12-27T21:15:59.326Z,96152.91
2018-12-27T21:18:30.162Z,96151.59
2018-12-27T21:21:01.047Z,96153.00
2018-12-27T21:23:31.714Z,96147.66
2018-12-27T21:26:02.151Z,96153.02
2018-12-27T21:31:28.301Z,96150.06
2018-12-27T21:33:59.594Z,96158.28
2018-12-27T21:36:30.085Z,96147.83
2018-12-27T21:39:01.447Z,96147.85
2018-12-27T21:41:32.074Z,96146.50
2018-12-27T21:44:02.597Z,96152.77
2018-12-27T21:46:53.292Z,96148.96
2018-12-27T21:49:24.419Z,96150.77
2018-12-27T21:51:55.058Z,96150.34
2018-12-27T21:54:25.588Z,96144.22
2018-12-27T21:56:56.799Z,96139.16
2018-12-27T21:59:27.800Z,96141.59
2018-12-27T22:01:58.591Z,96139.59
2018-12-27T22:04:29.045Z,96138.88
2018-12-27T22:07:00.428Z,96141.30
2018-12-27T22:09:31.400Z,96140.56
2018-12-27T22:12:01.937Z,96131.00
2018-12-27T22:14:32.377Z,96127.19
2018-12-27T22:17:03.439Z,96129.60
2018-12-27T22:19:34.067Z,96127.98
2018-12-27T22:22:05.008Z,96129.20
2018-12-27T22:24:36.352Z,96130.20
2018-12-27T22:27:06.982Z,96127.99
2018-12-27T22:29:37.601Z,96128.72
2018-12-27T22:32:08.877Z,96124.18
2018-12-27T22:34:40.201Z,96124.06
2018-12-27T22:37:10.816Z,96119.95
2018-12-27T22:39:41.460Z,96119.84
2018-12-27T22:45:11.180Z,96115.91
2018-12-27T22:47:41.859Z,96110.23
2018-12-27T22:50:12.634Z,96108.50
2018-12-27T22:52:42.993Z,96109.97
2018-12-27T22:55:14.561Z,96104.59
2018-12-27T22:57:45.033Z,96105.59
2018-12-27T23:00:27.925Z,96103.59
2018-12-27T23:02:59.617Z,96102.16
2018-12-27T23:05:30.252Z,96103.69
2018-12-27T23:08:00.510Z,96100.57
2018-12-27T23:10:30.773Z,96100.75
2018-12-27T23:13:01.335Z,96100.92
2018-12-27T23:15:32.071Z,96097.80
2018-12-27T23:18:03.258Z,96097.70
2018-12-27T23:20:34.181Z,96097.05
2018-12-27T23:23:04.987Z,96093.95
2018-12-27T23:25:35.613Z,96090.84
2018-12-27T23:28:05.896Z,96091.55
2018-12-27T23:30:36.265Z,96089.94
2018-12-27T23:33:06.793Z,96083.79
2018-12-27T23:35:37.219Z,96082.85
2018-12-27T23:38:08.190Z,96085.69
2018-12-27T23:40:38.689Z,96077.95
2018-12-27T23:43:09.539Z,96077.05
2018-12-27T23:45:40.766Z,96081.42
2018-12-27T23:48:11.295Z,96083.23
2018-12-27T23:50:41.832Z,96075.11
2018-12-27T23:53:12.138Z,96074.18
2018-12-27T23:55:42.391Z,96082.69
2018-12-27T23:58:12.692Z,96094.67
